• Join FlightAware (Why Join?)
  • Login
  • US Flag 
12:14AM EDT


 

Airport Tracker/Info


-or-


 

Live Flight TrackerFlight Track Log ✈ N7545J ✈ 22-Jun-2014 ✈ KCMD - KPDK

Flight Track Log - Related Links

Times and Time Zones

All times are in EDT time to prevent confusion due to time zone crossing. See the N7545J flight status page for this flight to view local times or setup timezone preferences in your user account.

Time Position Orientation Groundspeed Altitude Reporting Facility
EDT Latitude Longitude Course Direction KTS MPH feet Rate Location/Type
08:39AM 34.2389 -86.5139 104° East 119 137 5,300  Level Atlanta Center
08:40AM 34.2336 -86.4736 99° East 128 147 5,500 120 Climbing Atlanta Center
08:41AM 34.2239 -86.4306 105° East 128 147 5,600  Climbing Atlanta Center
08:42AM 34.2206 -86.3928 96° East 128 147 5,600 -60 Level Atlanta Center
08:43AM 34.2133 -86.3372 99° East 133 153 5,500 -60 Descending Atlanta Center
08:44AM 34.2326 -86.6463 104° East  Level FlightAware Approximate
08:44AM 34.2036 -86.2892 104° East 138 159 5,500  Level Atlanta Center
08:45AM 34.1981 -86.2514 100° East 138 159 5,600  Climbing Atlanta Center
08:46AM 34.1886 -86.1958 102° East 138 159 5,500 -60 Descending Atlanta Center
08:47AM 34.1792 -86.1456 103° East 143 165 5,500  Level Atlanta Center
08:48AM 34.1756 -86.1103 97° East 143 165 5,500  Level Atlanta Center
08:49AM 34.1661 -86.0522 101° East 143 165 5,500  Level Atlanta Center
08:50AM 34.1606 -86.0044 98° East 143 165 5,500  Level Atlanta Center
08:51AM 34.1508 -85.9589 104° East 143 165 5,500  Level Atlanta Center
08:52AM 34.1453 -85.9189 100° East 143 165 5,500  Level Atlanta Center
08:53AM 34.1314 -85.8633 107° East 143 165 5,500  Level Atlanta Center
08:54AM 34.1281 -85.8156 95° East 143 165 5,500  Level Atlanta Center
08:55AM 34.1222 -85.7728 99° East 143 165 5,500  Level Atlanta Center
08:56AM 34.1147 -85.7250 101° East 143 165 5,500  Level Atlanta Center
08:57AM 34.1089 -85.6797 99° East 143 165 5,500  Level Atlanta Center
08:58AM 34.0992 -85.6317 104° East 143 165 5,500  Level Atlanta Center
08:59AM 34.0933 -85.5864 99° East 143 165 5,500  Level Atlanta Center
09:00AM 34.0856 -85.5386 101° East 143 165 5,500  Level Atlanta Center
09:01AM 34.0758 -85.4933 105° East 143 165 5,500  Level Atlanta Center
09:02AM 34.0742 -85.4483 93° East 143 165 5,600  Climbing Atlanta Center
09:03AM 34.0644 -85.4006 104° East 143 165 5,600 -180 Level Atlanta Center
09:04AM 34.0544 -85.3500 103° East 143 165 5,300 -300 Descending Atlanta Center
09:05AM 34.0467 -85.2975 100° East 143 165 5,000 -240 Descending Atlanta Center
09:06AM 34.0367 -85.2519 105° East 148 170 4,900 -60 Descending Atlanta Center
09:07AM 34.0267 -85.2069 105° East 142 163 4,900  Level Atlanta Center
09:08AM 34.0189 -85.1592 101° East 142 163 4,900  Level Atlanta Center
09:09AM 34.0108 -85.1114 101° East 142 163 4,900  Level Atlanta Center
09:10AM 34.0050 -85.0686 99° East 142 163 5,000  Climbing Atlanta Center
09:11AM 33.9969 -85.0211 102° East 142 163 5,000  Level Atlanta Center
09:12AM 33.9847 -84.9783 109° East 142 163 5,000  Level Atlanta Center
09:13AM 33.9789 -84.9306 98° East 142 163 5,000  Level Atlanta Center
09:14AM 33.9731 -84.8856 99° East 142 163 5,000  Level Atlanta Center
09:16AM 33.9667 -84.8000 95° East 141 162 5,100  Climbing Atlanta TRACON
09:17AM 33.9500 -84.7500 112° Southeast 144 166 5,100  Level Atlanta TRACON
09:18AM 33.9500 -84.7000 90° East 144 166 5,100 -120 Level Atlanta TRACON
09:19AM 33.9333 -84.6667 121° Southeast 153 176 4,900 -300 Descending Atlanta TRACON
09:20AM 33.9167 -84.6000 107° East 157 181 4,500 -360 Descending Atlanta TRACON
09:21AM 33.9000 -84.5667 121° Southeast 149 171 4,200 -480 Descending Atlanta TRACON
09:22AM 33.8833 -84.5167 112° Southeast 156 180 3,700 -480 Descending Atlanta TRACON
09:23AM 33.8667 -84.4667 112° Southeast 154 177 3,300 -360 Descending Atlanta TRACON
09:24AM 33.8500 -84.4167 112° Southeast 142 163 3,000 -240 Descending Atlanta TRACON
09:25AM 33.8333 -84.3833 121° Southeast 139 160 2,900 -300 Descending Atlanta TRACON
09:26AM 33.8167 -84.3333 112° Southeast 154 177 2,500 -600 Descending Atlanta TRACON
09:27AM 33.8333 -84.3167 40° Northeast 106 122 1,700 -600 Descending Atlanta TRACON
09:28AM 33.8667 -84.3000 23° Northeast 89 102 1,300 -420 Descending Atlanta TRACON
09:30AM 33.8756 -84.3020 North  Level Estimated
09:37AM 33.8756 -84.3020 North  Level Estimated
09:38AM 33.8756 -84.3020 North  Level Estimated
09:39AM 33.8756 -84.3020 North  Level Estimated
09:40AM 33.8756 -84.3020 North  Level Estimated